Time;durP1;ratioP1;P1;durP2;ratioP2;P2;SDS_P1;SDS_P2;PMS_P1;PMS_P2;Temp;Humidity;BMP_temperature;BMP_pressure;BME280_temperature;BME280_humidity;BME280_pressure;Samples;Min_cycle;Max_cycle;Signal;HPM_P1;HPM_P2
2021/01/17 00:00:59;;;;;;;25.05;12.55;;;;;;;-14.32;52.59;100475.18;1731538;82;21484;-75
2021/01/17 00:03:26;;;;;;;20.62;11.28;;;;;;;-14.30;52.58;100471.88;1665805;84;21464;-75
2021/01/17 00:05:55;;;;;;;23.00;9.18;;;;;;;-14.28;52.49;100469.39;1727963;82;21164;-75
2021/01/17 00:08:22;;;;;;;21.37;11.65;;;;;;;-14.25;52.47;100485.47;1671929;84;21141;-75
2021/01/17 00:10:50;;;;;;;26.33;13.80;;;;;;;-14.22;52.41;100483.41;1715867;82;21196;-75
2021/01/17 00:13:18;;;;;;;27.45;12.68;;;;;;;-14.17;52.34;100482.25;1735675;82;21633;-75
2021/01/17 00:15:46;;;;;;;21.35;11.38;;;;;;;-14.12;52.27;100482.81;1713758;82;21160;-75
2021/01/17 00:18:14;;;;;;;21.40;11.60;;;;;;;-14.05;52.07;100483.39;1735686;82;21626;-75
2021/01/17 00:20:44;;;;;;;30.88;13.53;;;;;;;-14.05;51.99;100484.65;1730037;82;21204;-74
2021/01/17 00:23:12;;;;;;;21.90;10.70;;;;;;;-14.05;52.03;100485.07;1736201;82;21203;-74
2021/01/17 00:25:39;;;;;;;21.25;11.33;;;;;;;-13.98;51.88;100489.43;1737067;82;21121;-74
2021/01/17 00:28:07;;;;;;;24.95;12.78;;;;;;;-14.00;51.76;100491.47;1736630;82;21179;-74
2021/01/17 00:30:34;;;;;;;22.05;10.50;;;;;;;-14.03;51.79;100495.64;1737484;82;21165;-74
2021/01/17 00:33:02;;;;;;;25.35;13.68;;;;;;;-13.98;51.77;100489.81;1737120;82;21196;-74
2021/01/17 00:35:32;;;;;;;19.98;9.28;;;;;;;-13.94;51.76;100487.81;1715469;82;21203;-74
2021/01/17 00:38:01;;;;;;;22.60;11.88;;;;;;;-13.93;51.64;100498.39;1728309;82;21606;-74
2021/01/17 00:40:29;;;;;;;24.82;14.18;;;;;;;-13.96;51.63;100503.38;1691688;83;21745;-75
2021/01/17 00:42:56;;;;;;;21.37;13.13;;;;;;;-13.96;51.55;100503.38;1633003;85;21212;-74
2021/01/17 00:45:26;;;;;;;30.48;14.90;;;;;;;-13.95;51.58;100501.27;1713885;82;21232;-74
2021/01/17 00:47:54;;;;;;;20.45;11.78;;;;;;;-13.90;51.54;100503.48;1677115;84;21188;-74
2021/01/17 00:50:22;;;;;;;23.83;11.73;;;;;;;-13.86;51.26;100506.54;1731148;82;21153;-74
2021/01/17 00:52:55;;;;;;;22.55;13.03;;;;;;;-13.84;51.11;100507.00;1732417;81;21218;-75
2021/01/17 00:55:25;;;;;;;22.13;11.78;;;;;;;-13.82;51.13;100509.56;1734779;82;21140;-74
2021/01/17 00:57:53;;;;;;;25.43;12.58;;;;;;;-13.78;51.06;100510.47;1712914;82;21646;-74
2021/01/17 01:00:24;;;;;;;25.52;11.20;;;;;;;-13.75;50.79;100514.34;1713735;82;21006;-74
2021/01/17 01:03:14;;;;;;;26.85;13.15;;;;;;;-13.78;50.84;100510.09;1796035;77;22363;-59
2021/01/17 01:05:42;;;;;;;23.73;12.68;;;;;;;-13.80;50.82;100514.23;1751825;80;21198;-59
2021/01/17 01:08:09;;;;;;;22.32;12.40;;;;;;;-13.75;50.73;100517.74;1761930;80;21608;-59
2021/01/17 01:10:37;;;;;;;22.55;12.33;;;;;;;-13.72;50.56;100516.94;1761005;80;21203;-59
2021/01/17 01:13:05;;;;;;;31.05;13.48;;;;;;;-13.75;50.42;100521.54;1759497;80;21120;-59
2021/01/17 01:15:33;;;;;;;28.23;12.58;;;;;;;-13.79;50.32;100517.22;1752720;80;21176;-59
2021/01/17 01:18:00;;;;;;;26.07;12.53;;;;;;;-13.88;50.40;100512.83;1733843;80;21583;-59
2021/01/17 01:20:27;;;;;;;26.25;11.93;;;;;;;-13.93;50.60;100519.88;1765299;80;21133;-59
2021/01/17 01:22:56;;;;;;;18.40;11.08;;;;;;;-13.95;50.74;100517.70;1741467;80;21431;-59
2021/01/17 01:25:23;;;;;;;24.75;12.78;;;;;;;-13.94;50.83;100523.22;1767037;80;21544;-59
2021/01/17 01:27:53;;;;;;;19.57;11.68;;;;;;;-13.94;50.81;100515.63;1765697;80;21183;-59
2021/01/17 01:30:21;;;;;;;24.02;11.33;;;;;;;-13.93;50.88;100509.34;1723550;82;22263;-59
2021/01/17 01:32:52;;;;;;;22.80;11.48;;;;;;;-13.93;50.74;100512.30;1733227;80;21172;-59
2021/01/17 01:35:20;;;;;;;25.82;11.48;;;;;;;-13.93;50.75;100515.67;1738233;80;21192;-58
2021/01/17 01:37:47;;;;;;;27.93;13.03;;;;;;;-13.94;50.81;100506.36;1756039;80;21192;-58
2021/01/17 01:40:16;;;;;;;24.72;13.40;;;;;;;-13.95;50.64;100505.06;1761170;80;21105;-59
2021/01/17 01:42:44;;;;;;;21.80;10.05;;;;;;;-14.02;50.67;100501.16;1760763;80;21516;-58
2021/01/17 01:45:13;;;;;;;24.95;11.22;;;;;;;-14.05;50.70;100505.30;1767732;80;21194;-60
2021/01/17 01:47:40;;;;;;;23.52;11.50;;;;;;;-14.08;50.75;100509.86;1733538;80;21179;-58
2021/01/17 01:50:11;;;;;;;18.30;10.28;;;;;;;-14.12;50.77;100504.31;1767063;80;21172;-59
2021/01/17 01:52:38;;;;;;;28.35;12.85;;;;;;;-14.13;50.87;100495.42;1764085;80;21216;-59
2021/01/17 01:55:08;;;;;;;25.62;13.78;;;;;;;-14.15;50.86;100483.13;1773252;80;21555;-59
2021/01/17 01:57:36;;;;;;;26.40;12.78;;;;;;;-14.21;50.90;100482.18;1753943;80;21355;-58
2021/01/17 02:00:06;;;;;;;27.07;13.43;;;;;;;-14.26;50.89;100481.23;1774720;80;21843;-59
2021/01/17 02:02:45;;;;;;;25.12;13.20;;;;;;;-14.27;51.05;100483.33;1742037;80;22296;-59
2021/01/17 02:05:13;;;;;;;23.15;13.60;;;;;;;-14.29;50.95;100482.84;1746485;81;21129;-59
2021/01/17 02:08:07;;;;;;;24.45;12.73;;;;;;;-14.32;51.12;100485.30;1762037;81;21133;-59
2021/01/17 02:10:43;;;;;;;24.50;11.18;;;;;;;-14.33;51.06;100475.60;1827013;76;23419;-59
2021/01/17 02:13:22;;;;;;;26.95;13.40;;;;;;;-14.44;51.13;100486.74;1807017;79;21183;-59
2021/01/17 02:15:53;;;;;;;27.05;10.82;;;;;;;-14.49;51.29;100479.47;1771426;79;21176;-59
2021/01/17 02:18:22;;;;;;;23.55;10.50;;;;;;;-14.53;51.35;100484.41;1769675;79;21128;-59
2021/01/17 02:20:51;;;;;;;23.83;11.08;;;;;;;-14.55;51.36;100489.42;1776965;79;20998;-60
2021/01/17 02:23:37;;;;;;;18.50;10.32;;;;;;;-14.59;51.39;100496.11;1781217;79;21172;-59
2021/01/17 02:26:04;;;;;;;25.03;11.97;;;;;;;-14.62;51.44;100497.72;1797448;79;21144;-59
2021/01/17 02:28:32;;;;;;;20.65;11.10;;;;;;;-14.66;51.56;100494.23;1778805;79;21172;-59
2021/01/17 02:31:00;;;;;;;19.57;10.03;;;;;;;-14.67;51.50;100490.44;1780527;79;20986;-59
2021/01/17 02:33:32;;;;;;;30.12;12.90;;;;;;;-14.70;51.60;100494.99;1753089;80;21583;-59
2021/01/17 02:46:43;;;;;;;31.65;13.75;;;;;;;-14.64;51.57;100500.20;1875717;74;22714;-59
2021/01/17 02:49:12;;;;;;;19.92;11.60;;;;;;;-14.70;51.63;100506.78;1813694;79;21136;-59
2021/01/17 02:51:48;;;;;;;30.43;12.93;;;;;;;-14.69;51.61;100489.52;1881220;74;22848;-59
2021/01/17 02:54:33;;;;;;;30.08;13.85;;;;;;;-14.74;51.55;100489.82;1864356;76;21092;-59
2021/01/17 02:57:07;;;;;;;24.23;11.35;;;;;;;-14.68;51.59;100491.24;1861623;76;22187;-59
2021/01/17 03:00:07;;;;;;;34.63;15.35;;;;;;;-14.60;51.50;100489.34;1884441;76;21100;-59
2021/01/17 03:02:45;;;;;;;21.33;12.80;;;;;;;-14.55;51.35;100493.21;1855657;76;21601;-59
2021/01/17 03:05:17;;;;;;;28.85;12.60;;;;;;;-14.49;51.21;100492.48;1866154;76;21463;-58
2021/01/17 03:07:50;;;;;;;23.83;12.80;;;;;;;-14.48;51.06;100495.06;1854742;76;21119;-59
2021/01/17 03:10:19;;;;;;;22.02;11.30;;;;;;;-14.50;51.02;100491.64;1872717;76;21143;-58
2021/01/17 03:12:47;;;;;;;30.88;13.75;;;;;;;-14.51;50.92;100482.34;1826933;76;21443;-58
2021/01/17 03:15:16;;;;;;;22.67;13.83;;;;;;;-14.53;51.00;100481.88;1864635;76;21099;-59
2021/01/17 03:17:43;;;;;;;29.92;12.37;;;;;;;-14.52;50.99;100467.14;1854069;77;21158;-59
2021/01/17 03:20:12;;;;;;;29.45;13.53;;;;;;;-14.50;50.92;100471.43;1864932;76;21155;-59
2021/01/17 03:22:40;;;;;;;25.08;14.07;;;;;;;-14.48;50.84;100467.26;1826366;77;21182;-59
2021/01/17 03:25:09;;;;;;;23.92;10.30;;;;;;;-14.46;50.59;100466.88;1864807;76;21158;-59
2021/01/17 03:27:36;;;;;;;25.25;11.43;;;;;;;-14.53;50.57;100467.98;1867292;76;21115;-59
2021/01/17 03:30:05;;;;;;;25.92;12.85;;;;;;;-14.59;50.72;100475.02;1824214;77;21179;-59
2021/01/17 03:32:33;;;;;;;24.72;12.93;;;;;;;-14.61;50.82;100468.67;1836451;76;21150;-59
2021/01/17 03:35:00;;;;;;;25.57;11.15;;;;;;;-14.62;50.77;100478.77;1863746;75;21929;-59
2021/01/17 03:37:28;;;;;;;30.50;13.30;;;;;;;-14.65;50.81;100472.38;1859290;76;21175;-59
2021/01/17 03:39:55;;;;;;;25.52;14.45;;;;;;;-14.77;50.93;100468.73;1868931;76;21124;-59
2021/01/17 03:42:23;;;;;;;28.47;14.58;;;;;;;-14.77;51.14;100466.63;1862214;76;21171;-59
2021/01/17 03:44:51;;;;;;;23.77;12.07;;;;;;;-14.73;51.13;100472.59;1840691;76;21143;-59
2021/01/17 03:47:19;;;;;;;26.60;14.00;;;;;;;-14.71;51.00;100473.48;1877342;76;21227;-59
2021/01/17 03:49:46;;;;;;;23.90;13.08;;;;;;;-14.64;51.00;100476.59;1821571;74;21198;-60
2021/01/17 03:52:14;;;;;;;36.68;18.48;;;;;;;-14.58;50.75;100464.92;1854318;76;21103;-58
2021/01/17 03:54:44;;;;;;;48.87;21.52;;;;;;;-14.59;50.59;100464.53;1855187;76;21159;-58
2021/01/17 03:57:12;;;;;;;48.68;20.80;;;;;;;-14.62;50.46;100465.72;1868513;76;21140;-58
2021/01/17 03:59:40;;;;;;;40.50;18.62;;;;;;;-14.66;50.53;100468.13;1870965;76;22637;-59
2021/01/17 04:02:08;;;;;;;33.85;19.05;;;;;;;-14.69;50.66;100463.87;1854383;76;21159;-59
2021/01/17 04:04:36;;;;;;;31.87;16.07;;;;;;;-14.66;50.68;100457.61;1825785;76;21124;-59
2021/01/17 04:07:05;;;;;;;21.57;13.00;;;;;;;-14.60;50.66;100464.08;1857045;76;21171;-59
2021/01/17 04:09:33;;;;;;;36.58;14.07;;;;;;;-14.54;50.60;100465.00;1840684;76;21119;-59
2021/01/17 04:12:01;;;;;;;28.77;13.40;;;;;;;-14.50;50.48;100460.06;1825907;76;21460;-59
2021/01/17 04:14:28;;;;;;;29.52;13.93;;;;;;;-14.53;50.46;100457.45;1855603;76;21170;-58
2021/01/17 04:16:55;;;;;;;26.52;14.20;;;;;;;-14.56;50.42;100463.70;1863833;76;21116;-59
2021/01/17 04:19:23;;;;;;;28.50;13.53;;;;;;;-14.56;50.38;100467.48;1850324;76;21598;-59
2021/01/17 04:21:50;;;;;;;20.57;11.15;;;;;;;-14.61;50.15;100464.03;1865734;75;21185;-59
2021/01/17 04:24:18;;;;;;;23.18;13.18;;;;;;;-14.68;50.12;100467.24;1882671;76;21175;-58
2021/01/17 04:26:46;;;;;;;22.10;11.90;;;;;;;-14.72;50.20;100471.77;1838810;77;21116;-59
2021/01/17 04:29:14;;;;;;;23.77;14.20;;;;;;;-14.73;50.13;100472.18;1854013;76;21103;-58
2021/01/17 04:31:42;;;;;;;29.63;14.00;;;;;;;-14.75;50.15;100462.45;1849756;76;21170;-58
2021/01/17 04:34:11;;;;;;;24.50;13.18;;;;;;;-14.82;50.14;100463.98;1861741;76;21089;-59
2021/01/17 04:36:39;;;;;;;34.92;16.80;;;;;;;-14.94;50.30;100459.91;1840776;76;21194;-58
2021/01/17 04:39:07;;;;;;;27.77;13.38;;;;;;;-14.98;50.42;100463.16;1835642;76;21103;-58
2021/01/17 04:41:35;;;;;;;24.87;10.10;;;;;;;-15.02;50.52;100469.80;1861451;76;21072;-59
2021/01/17 04:44:05;;;;;;;22.32;13.90;;;;;;;-15.05;50.65;100472.24;1853841;76;21139;-59
2021/01/17 04:46:32;;;;;;;27.77;13.58;;;;;;;-15.09;50.75;100465.81;1818404;77;21107;-58
2021/01/17 04:49:03;;;;;;;28.55;15.38;;;;;;;-15.10;50.87;100467.91;1864062;76;21256;-60
2021/01/17 04:51:32;;;;;;;25.88;11.05;;;;;;;-15.11;50.96;100465.80;1867213;75;21164;-59
2021/01/17 04:54:01;;;;;;;30.40;16.40;;;;;;;-15.08;50.96;100467.53;1875830;75;21076;-60
2021/01/17 04:56:34;;;;;;;24.70;12.50;;;;;;;-15.08;50.87;100464.59;1877129;75;21107;-60
2021/01/17 04:59:15;;;;;;;30.92;12.80;;;;;;;-15.08;50.93;100466.27;1836433;75;21162;-59
2021/01/17 05:02:06;;;;;;;29.52;15.68;;;;;;;-15.07;50.98;100471.77;1867789;75;22952;-60
2021/01/17 05:05:07;;;;;;;23.83;11.80;;;;;;;-15.03;50.99;100474.81;1868055;75;21151;-59
2021/01/17 05:07:36;;;;;;;24.15;13.18;;;;;;;-15.01;50.91;100463.07;1854930;75;21143;-60
2021/01/17 05:10:11;;;;;;;30.95;13.85;;;;;;;-14.97;50.92;100458.56;1841114;75;21262;-60
2021/01/17 05:12:42;;;;;;;27.82;11.83;;;;;;;-14.93;50.86;100459.06;1860692;75;21163;-60
2021/01/17 05:15:10;;;;;;;32.73;12.50;;;;;;;-14.90;50.82;100464.62;1864841;75;21791;-60
2021/01/17 05:17:40;;;;;;;24.18;10.88;;;;;;;-14.93;50.71;100460.33;1871502;75;21530;-60
2021/01/17 05:20:09;;;;;;;27.82;13.78;;;;;;;-14.97;50.77;100466.13;1864991;75;21187;-60
2021/01/17 05:22:36;;;;;;;31.23;14.05;;;;;;;-15.02;50.78;100461.38;1878674;75;21131;-60
2021/01/17 05:25:06;;;;;;;22.70;11.43;;;;;;;-15.04;50.80;100461.34;1877191;75;21131;-60
2021/01/17 05:27:35;;;;;;;24.92;12.13;;;;;;;-15.07;50.89;100468.83;1870539;75;21235;-60
2021/01/17 05:30:06;;;;;;;27.15;14.75;;;;;;;-15.15;50.99;100471.15;1842779;75;21123;-60
2021/01/17 05:32:33;;;;;;;29.92;13.78;;;;;;;-15.20;51.17;100469.34;1844680;75;21206;-60
2021/01/17 05:35:02;;;;;;;27.30;12.82;;;;;;;-15.19;51.27;100478.22;1833891;75;21167;-60
2021/01/17 05:37:31;;;;;;;16.85;9.88;;;;;;;-15.18;51.33;100475.27;1863159;75;21179;-60
2021/01/17 05:40:07;;;;;;;26.60;12.60;;;;;;;-15.19;51.40;100478.22;1838272;75;21181;-60
2021/01/17 05:42:40;;;;;;;;;;;;;;;-15.13;51.38;100479.19;1873100;75;21095;-60
2021/01/17 05:45:37;;;;;;;23.02;10.20;;;;;;;-15.08;51.29;100476.37;1872874;75;20304;-61
2021/01/17 05:48:09;;;;;;;24.85;10.95;;;;;;;-15.11;51.15;100473.76;1783713;77;21187;-60
2021/01/17 05:50:37;;;;;;;23.47;14.45;;;;;;;-15.19;51.22;100474.84;1803306;79;21194;-61
2021/01/17 05:55:39;;;;;;;26.25;13.85;;;;;;;-15.10;51.37;100473.80;1813169;77;22131;-59
2021/01/17 05:58:32;;;;;;;24.90;12.55;;;;;;;-15.11;51.37;100478.42;1793378;77;21185;-60
2021/01/17 06:01:17;;;;;;;33.90;13.80;;;;;;;-15.06;51.37;100482.30;1802475;77;21631;-60
2021/01/17 06:03:52;;;;;;;28.80;13.60;;;;;;;-15.03;51.30;100484.91;1791087;78;21198;-58
2021/01/17 06:06:28;;;;;;;21.02;10.08;;;;;;;-14.97;51.23;100482.55;1783269;78;21215;-59
2021/01/17 06:08:59;;;;;;;30.02;14.28;;;;;;;-14.94;51.11;100481.37;1797862;78;21189;-60
2021/01/17 06:22:08;;;;;;;23.32;12.70;;;;;;;-14.96;51.21;100499.39;1807831;77;22754;-59
2021/01/17 06:24:41;;;;;;;24.37;11.35;;;;;;;-14.99;51.26;100501.86;1769738;80;21204;-59
2021/01/17 06:27:16;;;;;;;28.77;12.05;;;;;;;-14.97;51.20;100496.02;1822524;76;22305;-59
2021/01/17 06:29:43;;;;;;;27.93;14.20;;;;;;;-14.97;51.23;100499.80;1712722;82;21195;-59
2021/01/17 06:32:17;;;;;;;24.95;11.18;;;;;;;-14.89;51.23;100507.59;1752873;80;21332;-59
2021/01/17 06:34:53;;;;;;;25.95;12.65;;;;;;;-14.81;51.15;100501.45;1748222;81;21235;-60
2021/01/17 06:37:24;;;;;;;17.40;9.80;;;;;;;-14.78;51.00;100511.63;1737109;81;21657;-60
2021/01/17 06:39:57;;;;;;;24.50;12.37;;;;;;;-14.75;50.88;100516.77;1789871;79;21781;-60
2021/01/17 06:42:26;;;;;;;30.80;13.72;;;;;;;-14.76;50.92;100521.36;1788384;79;21324;-59
2021/01/17 06:44:54;;;;;;;30.75;14.28;;;;;;;-14.73;50.98;100526.49;1792375;79;23600;-57
2021/01/17 06:47:24;;;;;;;31.93;14.90;;;;;;;-14.67;51.02;100520.75;1786153;77;21190;-59
2021/01/17 06:49:53;;;;;;;23.20;14.73;;;;;;;-14.60;51.02;100521.34;1792799;79;21369;-59
2021/01/17 06:52:21;;;;;;;23.90;13.38;;;;;;;-14.58;51.00;100523.45;1786068;77;21222;-59
2021/01/17 06:54:52;;;;;;;34.70;15.88;;;;;;;-14.56;50.97;100524.34;1794030;79;21262;-59
2021/01/17 07:10:43;;;;;;;32.33;20.27;;;;;;;-12.57;48.16;100509.31;1757820;79;22799;-59
2021/01/17 07:13:14;;;;;;;36.25;19.35;;;;;;;-12.48;47.90;100501.84;1710584;82;21227;-59
2021/01/17 07:15:42;;;;;;;40.67;19.07;;;;;;;-12.52;47.94;100504.75;1723622;82;21235;-60
2021/01/17 07:18:13;;;;;;;36.93;19.40;;;;;;;-12.57;48.06;100511.85;1713886;82;21780;-60
2021/01/17 07:20:45;;;;;;;28.98;18.23;;;;;;;-12.61;48.15;100512.19;1731101;82;21140;-59
2021/01/17 07:23:16;;;;;;;43.65;21.95;;;;;;;-12.65;48.22;100510.87;1733464;81;21179;-61
2021/01/17 07:25:46;;;;;;;54.60;24.75;;;;;;;-12.74;48.36;100503.94;1726086;81;21602;-59
2021/01/17 07:28:18;;;;;;;36.50;19.85;;;;;;;-12.78;48.53;100504.73;1738357;82;21278;-59
2021/01/17 07:31:00;;;;;;;42.45;21.57;;;;;;;-12.80;48.79;100507.66;1696903;82;21251;-59
2021/01/17 07:33:36;;;;;;;33.28;16.73;;;;;;;-12.80;48.88;100506.39;1724913;81;21232;-59
2021/01/17 07:36:07;;;;;;;36.45;18.05;;;;;;;-12.80;48.99;100511.46;1730945;81;21218;-59
2021/01/17 07:38:37;;;;;;;36.77;19.15;;;;;;;-12.86;49.07;100509.66;1734327;82;21655;-59
2021/01/17 07:41:09;;;;;;;34.67;21.10;;;;;;;-12.91;49.20;100505.80;1729982;82;21409;-59
2021/01/17 07:43:41;;;;;;;31.15;17.17;;;;;;;-12.93;49.41;100504.05;1699818;82;21709;-59
2021/01/17 07:46:15;;;;;;;33.42;15.93;;;;;;;-12.93;49.56;100506.16;1736326;82;21160;-60
2021/01/17 07:49:02;;;;;;;26.60;15.40;;;;;;;-12.85;49.75;100505.04;1822469;76;23338;-59
2021/01/17 07:51:30;;;;;;;31.00;15.58;;;;;;;-12.88;49.85;100506.25;1799568;79;21183;-59
2021/01/17 07:54:24;;;;;;;34.20;14.23;;;;;;;-12.87;49.99;100498.26;1797836;78;21360;-59
2021/01/17 07:56:51;;;;;;;27.62;15.80;;;;;;;-12.84;50.21;100494.09;1801238;79;21179;-59
2021/01/17 07:59:24;;;;;;;34.53;15.10;;;;;;;-12.77;50.36;100496.31;1766761;79;21612;-60
2021/01/17 08:01:54;;;;;;;32.48;15.38;;;;;;;-12.73;50.38;100498.05;1771608;79;21235;-59
2021/01/17 08:04:22;;;;;;;28.73;12.80;;;;;;;-12.64;50.42;100501.15;1784994;79;21901;-59
2021/01/17 08:06:50;;;;;;;23.70;12.13;;;;;;;-12.58;50.46;100497.45;1760825;79;21223;-59
2021/01/17 08:09:19;;;;;;;26.73;13.93;;;;;;;-12.54;50.46;100495.00;1777198;79;21215;-59
2021/01/17 08:12:00;;;;;;;28.83;14.93;;;;;;;-12.46;50.62;100494.26;1771281;79;21200;-59
2021/01/17 08:14:35;;;;;;;21.82;12.73;;;;;;;-12.41;50.66;100492.64;1770370;79;21191;-61
2021/01/17 08:17:16;;;;;;;26.95;15.20;;;;;;;-12.35;50.77;100488.95;1754825;79;21199;-60
2021/01/17 08:19:58;;;;;;;27.58;11.70;;;;;;;-12.27;50.76;100498.79;1755290;79;21180;-60
2021/01/17 08:22:31;;;;;;;20.62;11.35;;;;;;;-12.17;50.83;100496.82;1800303;79;21203;-59
2021/01/17 08:25:02;;;;;;;24.97;12.13;;;;;;;-12.12;50.56;100493.48;1784151;79;21282;-59
2021/01/17 08:27:38;;;;;;;28.38;11.57;;;;;;;-12.16;50.63;100492.59;1791925;77;21187;-59
2021/01/17 08:30:17;;;;;;;20.30;10.40;;;;;;;-12.13;50.87;100495.60;1801661;79;21232;-60
2021/01/17 08:32:54;;;;;;;25.37;14.15;;;;;;;-12.00;51.03;100500.86;1793644;78;22598;-60
2021/01/17 08:35:28;;;;;;;22.37;12.78;;;;;;;-11.84;51.05;100495.52;1775019;79;21175;-60
2021/01/17 08:38:18;;;;;;;23.32;12.93;;;;;;;-11.74;50.85;100487.61;1793327;79;21199;-59
2021/01/17 08:40:51;;;;;;;22.55;13.85;;;;;;;-11.62;50.88;100489.02;1794471;78;21207;-60
2021/01/17 08:43:21;;;;;;;24.50;12.90;;;;;;;-11.49;50.69;100488.76;1808782;79;21172;-60
2021/01/17 08:45:52;;;;;;;21.02;11.48;;;;;;;-11.35;50.41;100485.09;1771625;79;21204;-60
2021/01/17 08:48:22;;;;;;;22.40;11.88;;;;;;;-11.31;50.24;100488.52;1794496;78;21476;-60
2021/01/17 08:50:57;;;;;;;25.12;11.33;;;;;;;-11.36;50.34;100485.08;1799070;78;21214;-59
2021/01/17 08:53:29;;;;;;;20.12;11.97;;;;;;;-11.33;50.70;100488.53;1809183;78;21179;-59
2021/01/17 08:56:14;;;;;;;14.73;8.68;;;;;;;-11.22;50.64;100491.17;1781499;78;21183;-57
2021/01/17 08:58:44;;;;;;;19.45;9.70;;;;;;;-11.14;50.28;100483.22;1816014;78;21978;-59
2021/01/17 09:01:13;;;;;;;20.50;10.10;;;;;;;-11.14;50.26;100482.38;1797567;78;21201;-59
2021/01/17 09:03:49;;;;;;;18.82;8.45;;;;;;;-11.10;50.43;100482.39;1810670;78;21203;-58
2021/01/17 09:06:28;;;;;;;19.07;11.35;;;;;;;-10.96;50.42;100477.86;1775137;78;21634;-58
2021/01/17 09:09:01;;;;;;;19.32;8.78;;;;;;;-10.87;50.13;100478.80;1807725;78;21178;-59
2021/01/17 09:11:36;;;;;;;25.23;12.60;;;;;;;-10.81;50.33;100486.05;1821446;76;21191;-60
2021/01/17 09:14:17;;;;;;;23.12;13.13;;;;;;;-10.77;49.89;100485.26;1728076;81;21218;-60
2021/01/17 09:16:49;;;;;;;18.48;8.68;;;;;;;-10.74;49.78;100480.17;1791301;79;21204;-59
2021/01/17 09:19:17;;;;;;;21.95;9.98;;;;;;;-10.73;49.80;100486.55;1753501;81;21217;-59
2021/01/17 09:21:51;;;;;;;21.75;8.88;;;;;;;-10.73;49.81;100480.19;1783971;80;21142;-59
2021/01/17 09:24:21;;;;;;;19.70;8.00;;;;;;;-10.74;49.97;100483.59;1744767;80;21389;-59
2021/01/17 09:26:53;;;;;;;23.52;8.90;;;;;;;-10.73;49.98;100476.38;1762785;80;21190;-59
2021/01/17 09:29:28;;;;;;;16.50;8.35;;;;;;;-10.71;50.08;100478.93;1776601;80;21484;-59
2021/01/17 09:32:08;;;;;;;21.40;9.90;;;;;;;-10.66;50.31;100470.52;1724821;81;21211;-59
2021/01/17 09:34:47;;;;;;;17.45;6.97;;;;;;;-10.61;50.29;100463.33;1726077;81;21221;-59
2021/01/17 09:37:17;;;;;;;14.20;7.05;;;;;;;-10.59;50.26;100457.83;1777481;79;21227;-59
2021/01/17 09:39:51;;;;;;;14.87;6.17;;;;;;;-10.60;50.22;100452.33;1761328;80;21222;-59
2021/01/17 09:42:20;;;;;;;18.82;9.93;;;;;;;-10.60;50.42;100451.91;1758567;80;21210;-60
2021/01/17 09:44:55;;;;;;;16.02;8.33;;;;;;;-10.61;50.50;100453.16;1770883;80;21182;-59
2021/01/17 09:47:24;;;;;;;20.20;10.43;;;;;;;-10.59;50.55;100451.08;1739591;80;21185;-59
2021/01/17 09:49:52;;;;;;;24.47;8.98;;;;;;;-10.56;50.93;100443.44;1731964;80;22483;-59
2021/01/17 09:52:21;;;;;;;16.95;7.78;;;;;;;-10.52;50.74;100455.78;1800355;79;21212;-59
2021/01/17 09:54:51;;;;;;;35.13;12.63;;;;;;;-10.49;50.80;100454.11;1779465;79;21223;-59
2021/01/17 09:57:25;;;;;;;24.45;11.68;;;;;;;-10.44;50.77;100462.18;1799123;79;21167;-59
2021/01/17 09:59:54;;;;;;;16.50;9.75;;;;;;;-10.35;50.56;100450.81;1794035;79;21144;-59
2021/01/17 10:02:24;;;;;;;27.62;9.88;;;;;;;-10.20;50.37;100447.05;1783827;79;21349;-60
2021/01/17 10:04:52;;;;;;;22.73;11.90;;;;;;;-10.09;50.18;100435.64;1795989;79;21175;-60
2021/01/17 10:07:21;;;;;;;21.30;10.45;;;;;;;-9.97;50.39;100440.81;1791748;79;21499;-60
2021/01/17 10:09:51;;;;;;;19.87;9.63;;;;;;;-9.83;50.21;100436.17;1773772;79;21191;-60
2021/01/17 10:12:21;;;;;;;15.50;7.45;;;;;;;-9.76;50.13;100443.86;1726832;82;21166;-60
2021/01/17 10:14:49;;;;;;;17.27;8.48;;;;;;;-9.76;49.42;100441.31;1751247;80;21387;-60
2021/01/17 10:17:18;;;;;;;15.70;7.40;;;;;;;-9.92;49.47;100449.32;1740352;81;21670;-59
2021/01/17 10:19:47;;;;;;;19.60;9.40;;;;;;;-9.99;49.69;100445.02;1766502;79;21199;-60
2021/01/17 10:22:16;;;;;;;10.30;6.47;;;;;;;-9.98;49.58;100444.63;1786222;79;21160;-60
2021/01/17 10:24:44;;;;;;;12.20;6.05;;;;;;;-9.94;49.24;100442.07;1794788;79;21195;-60
2021/01/17 10:27:17;;;;;;;15.72;7.90;;;;;;;-10.02;49.15;100445.00;1796879;79;21252;-60
2021/01/17 10:29:44;;;;;;;12.88;5.50;;;;;;;-10.03;49.46;100444.59;1793942;79;21223;-60
2021/01/17 10:32:14;;;;;;;11.25;7.53;;;;;;;-9.99;49.17;100446.30;1796878;79;21183;-60
2021/01/17 10:34:44;;;;;;;10.98;5.87;;;;;;;-10.03;49.39;100443.75;1796346;78;21184;-60
2021/01/17 10:37:16;;;;;;;13.80;6.17;;;;;;;-10.04;49.35;100447.97;1791531;79;21619;-60
2021/01/17 10:39:45;;;;;;;12.50;5.95;;;;;;;-10.05;49.41;100446.28;1767936;79;21179;-60
2021/01/17 10:42:30;;;;;;;16.27;6.67;;;;;;;-10.04;49.09;100440.33;1794176;79;21359;-62
2021/01/17 10:45:08;;;;;;;12.25;5.17;;;;;;;-10.06;49.17;100438.20;1807863;79;21693;-59
2021/01/17 10:48:02;;;;;;;11.12;4.92;;;;;;;-10.04;49.28;100425.48;1795020;77;21174;-60
2021/01/17 10:50:37;;;;;;;12.82;5.05;;;;;;;-9.98;48.98;100434.01;1765141;79;21180;-60
2021/01/17 10:53:30;;;;;;;;;;;;;;;-9.94;48.87;100419.16;1746261;79;21189;-59
2021/01/17 10:55:59;;;;;;;8.33;4.90;;;;;;;-9.86;48.40;100418.36;1778438;79;20964;-60
2021/01/17 10:58:34;;;;;;;13.10;4.85;;;;;;;-9.87;48.82;100413.67;1787619;79;21156;-59
2021/01/17 11:01:01;;;;;;;15.05;4.87;;;;;;;-9.80;48.85;100423.06;1794238;79;21140;-59
2021/01/17 11:03:31;;;;;;;12.40;5.15;;;;;;;-9.73;48.51;100418.41;1776692;79;21145;-59
2021/01/17 11:09:01;;;;;;;14.00;6.65;;;;;;;-9.58;48.34;100417.61;1743116;80;21171;-59
2021/01/17 11:11:30;;;;;;;24.50;6.03;;;;;;;-9.38;47.84;100416.38;1705702;82;21160;-61
2021/01/17 11:14:02;;;;;;;14.60;5.10;;;;;;;-9.18;48.05;100416.41;1731855;82;21159;-57
2021/01/17 11:16:49;;;;;;;12.10;4.85;;;;;;;-9.00;47.32;100414.28;1713520;82;21197;-58
2021/01/17 11:19:18;;;;;;;10.45;4.75;;;;;;;-8.85;47.32;100407.06;1740048;82;22393;-58
2021/01/17 11:21:47;;;;;;;13.83;5.55;;;;;;;-8.67;46.16;100413.02;1704903;82;21220;-59
2021/01/17 11:24:14;;;;;;;10.20;5.30;;;;;;;-8.64;46.44;100408.77;1695794;82;21164;-59
2021/01/17 11:26:43;;;;;;;13.03;4.92;;;;;;;-8.64;46.20;100398.56;1728505;81;21185;-59
2021/01/17 11:29:16;;;;;;;14.60;5.60;;;;;;;-8.63;45.94;100403.23;1738383;81;21141;-59
2021/01/17 11:31:45;;;;;;;8.70;4.20;;;;;;;-8.66;46.21;100402.79;1734715;81;21477;-60
2021/01/17 11:34:17;;;;;;;14.65;6.78;;;;;;;-8.66;46.27;100401.95;1732328;82;21642;-59
2021/01/17 11:36:45;;;;;;;16.20;7.30;;;;;;;-8.63;46.15;100399.40;1733033;81;21693;-59
2021/01/17 11:39:19;;;;;;;12.98;7.10;;;;;;;-8.56;46.08;100402.80;1710562;81;21206;-59
2021/01/17 11:41:47;;;;;;;14.73;7.33;;;;;;;-8.61;46.10;100392.59;1702619;83;21147;-59
2021/01/17 11:44:19;;;;;;;11.22;5.85;;;;;;;-8.62;46.19;100400.67;1705318;82;21402;-62
2021/01/17 11:46:48;;;;;;;15.13;6.80;;;;;;;-8.53;46.32;100401.52;1731691;82;21170;-62
2021/01/17 11:49:26;;;;;;;12.98;6.67;;;;;;;-8.44;46.09;100392.15;1715333;82;21617;-60
2021/01/17 11:51:55;;;;;;;11.65;5.92;;;;;;;-8.28;45.98;100390.36;1729549;81;21178;-59
2021/01/17 11:57:09;;;;;;;16.32;6.85;;;;;;;-7.96;45.59;100393.23;1804625;79;22779;-59
2021/01/17 11:59:38;;;;;;;17.07;7.90;;;;;;;-7.85;45.21;100403.39;1724971;82;21562;-59
2021/01/17 12:02:19;;;;;;;18.23;7.12;;;;;;;-7.66;43.93;100406.30;1725443;79;21410;-60
2021/01/17 12:04:59;;;;;;;23.10;8.23;;;;;;;-7.18;43.80;100404.72;1711592;81;21243;-59
2021/01/17 12:07:28;;;;;;;13.60;6.33;;;;;;;-6.52;42.97;100412.31;1714242;81;21630;-60